Seven Seas Voyager — C6SW3 — position and weather

sailwx.info

Track history (hours):
 
Tides and Currents Weather Stations Pressure Air Temp Water Temp Dewpoint Dewpoint Depression Visibility Wind Speed Wind Dir Waves Ship Positions

Seven Seas Voyager

Last reported at 2019-Jan-23 17:25 UTC. Time now 2019-Jan-23 17:38 UTC.
Position N 20°31' W 086°57'.

Length 205 m; draft 7 m.

Type: Ship. MMSI: 31151000.

Date/timePositionNaut miles runAvg speedWind from/ knotsBaromVisibWave heightAir tempDewpointWater temp
2019-Jan-23 17:25N 20°31' W 086°57'0 0.0
2019-Jan-23 16:55N 20°31' W 086°57'0 0.0
2019-Jan-23 16:25N 20°31' W 086°57'0 0.0
2019-Jan-23 15:49N 20°31' W 086°57'0 0.0
2019-Jan-23 15:25N 20°31' W 086°57'0 0.0
2019-Jan-23 14:55N 20°31' W 086°57'0 0.0
2019-Jan-23 14:25N 20°31' W 086°57'0 0.0
2019-Jan-23 13:55N 20°31' W 086°57'0 0.0
2019-Jan-23 13:25N 20°31' W 086°57'0 0.0
2019-Jan-23 12:55N 20°31' W 086°57'0 0.1
2019-Jan-23 12:30N 20°31' W 086°57'2 3.8
2019-Jan-23 12:00N 20°31' W 086°59'510.7
2019-Jan-23 11:30N 20°26' W 087°02'917.4
2019-Jan-23 11:00N 20°18' W 087°04'12117.2
2019-Jan-23 04:00N 18°18' W 086°48'157 6.5 090 / 331017.010.8 24.021.1
2019-Jan-22 04:00N 16°00' W 088°06'1211.5 120 / 21025.010.8 20.016.9
2019-Jan-22 03:00N 16°00' W 088°18'8 0.4 220 / 91025.010.8 20.016.9
2019-Jan-21 04:00N 15°54' W 088°12'1211.5 230 / 121021.010.8 21.019.5
2019-Jan-21 03:00N 15°54' W 088°24'128 5.1 270 / 151021.010.8 21.019.5
2019-Jan-20 02:00N 17°54' W 087°36'225 9.4 140 / 91015.010.8 23.021.6
2019-Jan-19 02:00N 21°12' W 085°42'41017.1 110 / 191020.010.8 23.020.1
2019-Jan-18 02:00N 25°06' W 079°36'1522.1 080 / 101025.010.8 21.016.4
2019-Jan-18 01:18N 25°21' W 079°40'515.5
2019-Jan-18 01:00N 25°25' W 079°40'815.1
2019-Jan-18 00:30N 25°33' W 079°40'713.9
2019-Jan-18 00:00N 25°39' W 079°44'917.2
2019-Jan-17 23:30N 25°42' W 079°53'917.2
2019-Jan-17 23:00N 25°45' W 080°02'611.0
2019-Jan-17 22:30N 25°46' W 080°08'2 4.4
2019-Jan-17 22:00N 25°46' W 080°11'0 0.2
2019-Jan-17 21:30N 25°46' W 080°11'0 0.0
2019-Jan-17 21:00N 25°46' W 080°11'0 0.0
2019-Jan-17 20:24N 25°46' W 080°11'0 0.0
2019-Jan-17 20:00N 25°46' W 080°11'0 0.0
2019-Jan-17 19:30N 25°46' W 080°11'0 0.0
2019-Jan-17 19:00N 25°46' W 080°11'0 0.0
2019-Jan-17 18:30N 25°46' W 080°11'0 0.0
2019-Jan-17 18:00N 25°46' W 080°11'0 0.0
2019-Jan-17 17:30N 25°46' W 080°11'0 0.0
2019-Jan-17 17:00N 25°46' W 080°11'0 0.0
2019-Jan-17 16:30N 25°46' W 080°11'0 0.0
2019-Jan-17 16:00N 25°46' W 080°11'0 0.0
2019-Jan-17 15:30N 25°46' W 080°11'0 0.1
2019-Jan-17 15:00N 25°46' W 080°11'0 0.0
2019-Jan-17 14:24N 25°46' W 080°11'0 0.0
2019-Jan-17 13:54N 25°46' W 080°11'0 0.0
2019-Jan-17 13:24N 25°46' W 080°11'0 0.0
2019-Jan-17 13:00N 25°46' W 080°11'0 0.0
2019-Jan-17 12:30N 25°46' W 080°11'0 0.0
2019-Jan-17 12:00N 25°46' W 080°11'0 0.0
2019-Jan-17 11:30N 25°46' W 080°11'1 2.3
2019-Jan-17 11:00N 25°46' W 080°10'4 7.9
2019-Jan-17 10:30N 25°46' W 080°05'510.6
2019-Jan-17 10:00N 25°48' W 079°60'713.8
2019-Jan-17 09:30N 25°51' W 079°53'815.4
2019-Jan-17 09:00N 25°55' W 079°45'815.2
2019-Jan-17 08:30N 25°58' W 079°38'714.2
2019-Jan-17 08:00N 26°01' W 079°31'713.5
2019-Jan-17 07:30N 26°04' W 079°24'6514.5
2019-Jan-17 03:00N 25°54' W 078°12'1616.2 040 / 211021.010.8 21.014.7
2019-Jan-17 02:00N 25°54' W 077°54'38616.1 020 / 201021.010.8 20.015.3
2019-Jan-16 02:00N 23°00' W 071°36'1817.6 340 / 81019.010.8 23.018.5
2019-Jan-16 01:00N 22°54' W 071°18'43118.7 360 / 51019.010.8 23.018.5
2019-Jan-15 02:00N 19°12' W 064°42'1716.5 040 / 191020.010.8 24.021.1
2019-Jan-15 01:00N 19°00' W 064°30'6918.5 040 / 141020.010.8 24.021.1
2019-Jan-14 21:16N 18°18' W 063°32'818.8
2019-Jan-14 20:52N 18°14' W 063°26'1618.8
2019-Jan-14 20:01N 18°04' W 063°13'217.0
2019-Jan-14 19:54N 18°03' W 063°11'715.7
2019-Jan-14 19:27N 18°00' W 063°04'1 2.7
2019-Jan-14 19:00N 18°01' W 063°03'0 0.0
2019-Jan-14 18:30N 18°01' W 063°03'0 0.0
2019-Jan-14 18:00N 18°01' W 063°03'0 0.0
2019-Jan-14 17:06N 18°01' W 063°03'0 0.0
2019-Jan-14 16:36N 18°01' W 063°03'0 0.0
2019-Jan-14 16:18N 18°01' W 063°03'0 0.0
2019-Jan-14 15:54N 18°01' W 063°03'0 0.0
2019-Jan-14 15:24N 18°01' W 063°03'0 0.0
2019-Jan-14 14:36N 18°01' W 063°03'0 0.0
2019-Jan-14 13:54N 18°01' W 063°03'0 0.0
2019-Jan-14 13:24N 18°01' W 063°03'0 0.0
2019-Jan-14 12:36N 18°01' W 063°03'0 0.0
2019-Jan-14 12:24N 18°01' W 063°03'0 0.0
2019-Jan-14 11:54N 18°01' W 063°03'0 0.0
2019-Jan-14 11:00N 18°01' W 063°03'0 0.0
2019-Jan-14 10:20N 18°01' W 063°03'0 0.8
2019-Jan-14 09:54N 18°01' W 063°03'3 6.3
2019-Jan-14 09:25N 18°01' W 063°06'610.6
2019-Jan-14 08:53N 18°02' W 063°12'510.6
2019-Jan-14 08:27N 18°03' W 063°17'510.9
2019-Jan-14 07:59N 18°04' W 063°22'712.2
2019-Jan-14 07:23N 18°06' W 063°29'612.0
2019-Jan-14 06:53N 18°09' W 063°35'4 0.9
2019-Jan-14 02:39N 18°06' W 063°37'5 8.9
2019-Jan-14 02:07N 18°04' W 063°32'536.1
2019-Jan-14 02:00N 18°00' W 063°30'513.1 070 / 131020.010.8 24.019.6
2019-Jan-14 01:38N 18°04' W 063°27'1 8.7
2019-Jan-14 01:28N 18°04' W 063°26'5 8.7
2019-Jan-14 00:56N 18°03' W 063°21'13 9.0
2019-Jan-13 23:33N 17°57' W 063°09'3 9.1
2019-Jan-13 23:15N 17°56' W 063°07'8 9.4
2019-Jan-13 22:25N 17°55' W 062°58'510.3
2019-Jan-13 21:58N 17°54' W 062°54'1 0.9
2019-Jan-13 20:58N 17°54' W 062°53'0 0.0
2019-Jan-13 20:28N 17°54' W 062°53'0 0.0
2019-Jan-13 19:46N 17°54' W 062°53'0 0.1
2019-Jan-13 19:16N 17°54' W 062°53'0 0.1
2019-Jan-13 18:58N 17°54' W 062°53'0 0.1
2019-Jan-13 18:28N 17°54' W 062°53'0 0.1
2019-Jan-13 17:58N 17°54' W 062°53'0 0.0
2019-Jan-13 17:28N 17°54' W 062°53'  
Track history (hours):
 
Tides and Currents Weather Stations Pressure Air Temp Water Temp Dewpoint Dewpoint Depression Visibility Wind Speed Wind Dir Waves Ship Positions

Seven Seas Voyager

Last reported at 2019-Jan-23 17:25 UTC. Time now 2019-Jan-23 17:38 UTC.
Position N 20°31' W 086°57'.

Length 205 m; draft 7 m.

Type: Ship. MMSI: 31151000.

Date/timePositionNaut miles runAvg speedWind from/ knotsBaromVisibWave heightAir tempDewpointWater temp
2019-Jan-23 17:25N 20°31' W 086°57'0 0.0
2019-Jan-23 16:55N 20°31' W 086°57'0 0.0
2019-Jan-23 16:25N 20°31' W 086°57'0 0.0
2019-Jan-23 15:49N 20°31' W 086°57'0 0.0
2019-Jan-23 15:25N 20°31' W 086°57'0 0.0
2019-Jan-23 14:55N 20°31' W 086°57'0 0.0
2019-Jan-23 14:25N 20°31' W 086°57'0 0.0
2019-Jan-23 13:55N 20°31' W 086°57'0 0.0
2019-Jan-23 13:25N 20°31' W 086°57'0 0.0
2019-Jan-23 12:55N 20°31' W 086°57'0 0.1
2019-Jan-23 12:30N 20°31' W 086°57'2 3.8
2019-Jan-23 12:00N 20°31' W 086°59'510.7
2019-Jan-23 11:30N 20°26' W 087°02'917.4
2019-Jan-23 11:00N 20°18' W 087°04'12117.2
2019-Jan-23 04:00N 18°18' W 086°48'157 6.5 090 / 331017.010.8 24.021.1
2019-Jan-22 04:00N 16°00' W 088°06'1211.5 120 / 21025.010.8 20.016.9
2019-Jan-22 03:00N 16°00' W 088°18'8 0.4 220 / 91025.010.8 20.016.9
2019-Jan-21 04:00N 15°54' W 088°12'1211.5 230 / 121021.010.8 21.019.5
2019-Jan-21 03:00N 15°54' W 088°24'128 5.1 270 / 151021.010.8 21.019.5
2019-Jan-20 02:00N 17°54' W 087°36'225 9.4 140 / 91015.010.8 23.021.6
2019-Jan-19 02:00N 21°12' W 085°42'41017.1 110 / 191020.010.8 23.020.1
2019-Jan-18 02:00N 25°06' W 079°36'1522.1 080 / 101025.010.8 21.016.4
2019-Jan-18 01:18N 25°21' W 079°40'515.5
2019-Jan-18 01:00N 25°25' W 079°40'815.1
2019-Jan-18 00:30N 25°33' W 079°40'713.9
2019-Jan-18 00:00N 25°39' W 079°44'917.2
2019-Jan-17 23:30N 25°42' W 079°53'917.2
2019-Jan-17 23:00N 25°45' W 080°02'611.0
2019-Jan-17 22:30N 25°46' W 080°08'2 4.4
2019-Jan-17 22:00N 25°46' W 080°11'0 0.2
2019-Jan-17 21:30N 25°46' W 080°11'0 0.0
2019-Jan-17 21:00N 25°46' W 080°11'0 0.0
2019-Jan-17 20:24N 25°46' W 080°11'0 0.0
2019-Jan-17 20:00N 25°46' W 080°11'0 0.0
2019-Jan-17 19:30N 25°46' W 080°11'0 0.0
2019-Jan-17 19:00N 25°46' W 080°11'0 0.0
2019-Jan-17 18:30N 25°46' W 080°11'0 0.0
2019-Jan-17 18:00N 25°46' W 080°11'0 0.0
2019-Jan-17 17:30N 25°46' W 080°11'0 0.0
2019-Jan-17 17:00N 25°46' W 080°11'0 0.0
2019-Jan-17 16:30N 25°46' W 080°11'0 0.0
2019-Jan-17 16:00N 25°46' W 080°11'0 0.0
2019-Jan-17 15:30N 25°46' W 080°11'0 0.1
2019-Jan-17 15:00N 25°46' W 080°11'0 0.0
2019-Jan-17 14:24N 25°46' W 080°11'0 0.0
2019-Jan-17 13:54N 25°46' W 080°11'0 0.0
2019-Jan-17 13:24N 25°46' W 080°11'0 0.0
2019-Jan-17 13:00N 25°46' W 080°11'0 0.0
2019-Jan-17 12:30N 25°46' W 080°11'0 0.0
2019-Jan-17 12:00N 25°46' W 080°11'0 0.0
2019-Jan-17 11:30N 25°46' W 080°11'1 2.3
2019-Jan-17 11:00N 25°46' W 080°10'4 7.9
2019-Jan-17 10:30N 25°46' W 080°05'510.6
2019-Jan-17 10:00N 25°48' W 079°60'713.8
2019-Jan-17 09:30N 25°51' W 079°53'815.4
2019-Jan-17 09:00N 25°55' W 079°45'815.2
2019-Jan-17 08:30N 25°58' W 079°38'714.2
2019-Jan-17 08:00N 26°01' W 079°31'713.5
2019-Jan-17 07:30N 26°04' W 079°24'6514.5
2019-Jan-17 03:00N 25°54' W 078°12'1616.2 040 / 211021.010.8 21.014.7
2019-Jan-17 02:00N 25°54' W 077°54'38616.1 020 / 201021.010.8 20.015.3
2019-Jan-16 02:00N 23°00' W 071°36'1817.6 340 / 81019.010.8 23.018.5
2019-Jan-16 01:00N 22°54' W 071°18'43118.7 360 / 51019.010.8 23.018.5
2019-Jan-15 02:00N 19°12' W 064°42'1716.5 040 / 191020.010.8 24.021.1
2019-Jan-15 01:00N 19°00' W 064°30'6918.5 040 / 141020.010.8 24.021.1
2019-Jan-14 21:16N 18°18' W 063°32'818.8
2019-Jan-14 20:52N 18°14' W 063°26'1618.8
2019-Jan-14 20:01N 18°04' W 063°13'217.0
2019-Jan-14 19:54N 18°03' W 063°11'715.7
2019-Jan-14 19:27N 18°00' W 063°04'1 2.7
2019-Jan-14 19:00N 18°01' W 063°03'0 0.0
2019-Jan-14 18:30N 18°01' W 063°03'0 0.0
2019-Jan-14 18:00N 18°01' W 063°03'0 0.0
2019-Jan-14 17:06N 18°01' W 063°03'0 0.0
2019-Jan-14 16:36N 18°01' W 063°03'0 0.0
2019-Jan-14 16:18N 18°01' W 063°03'0 0.0
2019-Jan-14 15:54N 18°01' W 063°03'0 0.0
2019-Jan-14 15:24N 18°01' W 063°03'0 0.0
2019-Jan-14 14:36N 18°01' W 063°03'0 0.0
2019-Jan-14 13:54N 18°01' W 063°03'0 0.0
2019-Jan-14 13:24N 18°01' W 063°03'0 0.0
2019-Jan-14 12:36N 18°01' W 063°03'0 0.0
2019-Jan-14 12:24N 18°01' W 063°03'0 0.0
2019-Jan-14 11:54N 18°01' W 063°03'0 0.0
2019-Jan-14 11:00N 18°01' W 063°03'0 0.0
2019-Jan-14 10:20N 18°01' W 063°03'0 0.8
2019-Jan-14 09:54N 18°01' W 063°03'3 6.3
2019-Jan-14 09:25N 18°01' W 063°06'610.6
2019-Jan-14 08:53N 18°02' W 063°12'510.6
2019-Jan-14 08:27N 18°03' W 063°17'510.9
2019-Jan-14 07:59N 18°04' W 063°22'712.2
2019-Jan-14 07:23N 18°06' W 063°29'612.0
2019-Jan-14 06:53N 18°09' W 063°35'4 0.9
2019-Jan-14 02:39N 18°06' W 063°37'5 8.9
2019-Jan-14 02:07N 18°04' W 063°32'536.1
2019-Jan-14 02:00N 18°00' W 063°30'513.1 070 / 131020.010.8 24.019.6
2019-Jan-14 01:38N 18°04' W 063°27'1 8.7
2019-Jan-14 01:28N 18°04' W 063°26'5 8.7
2019-Jan-14 00:56N 18°03' W 063°21'13 9.0
2019-Jan-13 23:33N 17°57' W 063°09'3 9.1
2019-Jan-13 23:15N 17°56' W 063°07'8 9.4
2019-Jan-13 22:25N 17°55' W 062°58'510.3
2019-Jan-13 21:58N 17°54' W 062°54'1 0.9
2019-Jan-13 20:58N 17°54' W 062°53'0 0.0
2019-Jan-13 20:28N 17°54' W 062°53'0 0.0
2019-Jan-13 19:46N 17°54' W 062°53'0 0.1
2019-Jan-13 19:16N 17°54' W 062°53'0 0.1
2019-Jan-13 18:58N 17°54' W 062°53'0 0.1
2019-Jan-13 18:28N 17°54' W 062°53'0 0.1
2019-Jan-13 17:58N 17°54' W 062°53'0 0.0
2019-Jan-13 17:28N 17°54' W 062°53'  

Dump ship's entire track history